createdAt,value
2023-04-17T00:03:34.097Z,25.00
2023-04-17T00:08:35.630Z,25.65
2023-04-17T00:13:37.292Z,27.25
2023-04-17T00:18:38.768Z,26.88
2023-04-17T00:23:40.589Z,25.83
2023-04-17T00:28:42.068Z,27.00
2023-04-17T00:33:43.479Z,25.10
2023-04-17T00:38:44.980Z,26.30
2023-04-17T00:43:46.412Z,26.65
2023-04-17T00:48:48.685Z,30.95
2023-04-17T00:53:50.312Z,29.50
2023-04-17T00:58:51.894Z,25.92
2023-04-17T01:03:53.663Z,27.80
2023-04-17T01:08:55.716Z,28.27
2023-04-17T01:13:57.155Z,27.42
2023-04-17T01:18:58.625Z,28.35
2023-04-17T01:24:03.072Z,31.80
2023-04-17T01:29:04.536Z,28.25
2023-04-17T01:34:05.984Z,27.58
2023-04-17T01:39:07.527Z,25.73
2023-04-17T01:44:09.046Z,30.92
2023-04-17T01:49:11.658Z,27.42
2023-04-17T01:54:15.450Z,27.23
2023-04-17T01:59:17.094Z,33.72
2023-04-17T02:04:18.807Z,31.38
2023-04-17T02:09:20.361Z,33.10
2023-04-17T02:14:21.794Z,31.42
2023-04-17T02:19:23.602Z,31.08
2023-04-17T02:24:25.394Z,32.28
2023-04-17T02:29:26.860Z,31.88
2023-04-17T02:34:28.275Z,32.08
2023-04-17T02:39:31.201Z,31.17
2023-04-17T02:44:32.615Z,32.58
2023-04-17T02:49:34.052Z,31.55
2023-04-17T02:54:35.620Z,34.47
2023-04-17T02:59:37.078Z,35.58
2023-04-17T03:04:38.793Z,34.38
2023-04-17T03:09:40.211Z,39.28
2023-04-17T03:14:42.448Z,36.65
2023-04-17T03:19:43.863Z,35.67
2023-04-17T03:24:45.535Z,35.55
2023-04-17T03:29:46.954Z,38.03
2023-04-17T03:34:48.379Z,38.17
2023-04-17T03:39:49.810Z,36.25
2023-04-17T03:44:52.042Z,37.15
2023-04-17T03:49:53.469Z,40.35
2023-04-17T03:54:54.882Z,37.33
2023-04-17T03:59:56.294Z,38.80
2023-04-17T04:04:57.766Z,36.78
2023-04-17T04:09:59.199Z,39.15
2023-04-17T04:15:01.012Z,41.20
2023-04-17T04:20:02.474Z,38.10
2023-04-17T04:25:04.106Z,38.85
2023-04-17T04:30:06.606Z,38.92
2023-04-17T04:35:08.609Z,36.03
2023-04-17T04:40:10.955Z,35.65
2023-04-17T04:45:12.573Z,35.95
2023-04-17T04:50:13.997Z,37.28
2023-04-17T04:55:15.635Z,35.60
2023-04-17T05:00:18.113Z,34.85
2023-04-17T05:05:19.592Z,34.72
2023-04-17T05:10:21.682Z,37.80
2023-04-17T05:15:23.278Z,37.40
2023-04-17T05:20:28.400Z,34.15
2023-04-17T05:25:29.837Z,35.35
2023-04-17T05:30:31.294Z,37.45
2023-04-17T05:35:33.225Z,38.00
2023-04-17T05:40:34.868Z,32.03
2023-04-17T05:45:36.701Z,34.20
2023-04-17T05:50:38.241Z,35.08
2023-04-17T05:55:39.795Z,33.63
2023-04-17T06:00:42.239Z,37.50
2023-04-17T06:05:43.725Z,31.20
2023-04-17T06:10:46.025Z,27.55
2023-04-17T06:15:47.517Z,29.05
2023-04-17T06:20:48.976Z,27.55
2023-04-17T06:25:50.383Z,29.40
2023-04-17T06:30:51.934Z,27.92
2023-04-17T06:35:53.369Z,28.85
2023-04-17T06:40:54.821Z,27.42
2023-04-17T06:45:56.262Z,27.02
2023-04-17T06:50:58.048Z,26.67
2023-04-17T06:55:59.462Z,27.75
2023-04-17T07:01:00.942Z,26.15
2023-04-17T07:06:02.402Z,27.20
2023-04-17T07:11:03.932Z,24.70
2023-04-17T07:16:06.388Z,24.75
2023-04-17T07:21:08.042Z,24.65
2023-04-17T07:26:11.404Z,21.90
2023-04-17T07:31:12.865Z,16.77
2023-04-17T07:36:14.324Z,22.73
2023-04-17T07:41:15.832Z,22.40
2023-04-17T07:46:17.312Z,18.70
2023-04-17T07:51:18.800Z,20.90
2023-04-17T07:56:20.259Z,21.27
2023-04-17T08:01:21.705Z,19.58
2023-04-17T08:06:23.234Z,20.33
2023-04-17T08:11:24.716Z,19.67
2023-04-17T08:16:26.248Z,21.38
2023-04-17T08:21:27.807Z,19.92
2023-04-17T08:26:29.245Z,21.90
2023-04-17T08:31:31.398Z,15.13
2023-04-17T08:36:33.133Z,19.92
2023-04-17T08:41:42.950Z,22.42
2023-04-17T08:46:45.221Z,22.67
2023-04-17T08:51:47.219Z,19.42
2023-04-17T08:56:48.985Z,26.00
2023-04-17T09:02:01.925Z,25.10
2023-04-17T09:07:05.124Z,25.67
2023-04-17T09:12:13.017Z,19.42
2023-04-17T09:17:19.137Z,24.75
2023-04-17T09:22:22.443Z,22.52
2023-04-17T09:27:26.273Z,27.08
2023-04-17T09:32:28.463Z,30.02
2023-04-17T09:37:53.859Z,30.25
2023-04-17T09:42:56.578Z,26.85
2023-04-17T09:47:58.386Z,30.33
2023-04-17T09:53:00.579Z,28.38
2023-04-17T09:58:04.391Z,29.35
2023-04-17T10:03:07.545Z,34.88
2023-04-17T10:08:09.335Z,28.33
2023-04-17T10:13:12.740Z,34.00
2023-04-17T10:18:24.934Z,30.90
2023-04-17T10:23:31.974Z,32.40
2023-04-17T10:28:50.018Z,30.73
2023-04-17T10:33:54.149Z,30.13
2023-04-17T10:39:12.409Z,27.33
2023-04-17T10:44:13.984Z,28.00
2023-04-17T10:49:15.432Z,28.75
2023-04-17T10:54:17.079Z,28.55
2023-04-17T10:59:19.161Z,27.67
2023-04-17T11:04:34.084Z,29.67
2023-04-17T11:09:36.211Z,24.48
2023-04-17T11:14:40.857Z,22.63
2023-04-17T11:19:42.415Z,24.05
2023-04-17T11:24:44.334Z,21.83
2023-04-17T11:29:46.013Z,23.27
2023-04-17T11:34:47.494Z,24.23
2023-04-17T11:39:48.976Z,20.85
2023-04-17T11:44:50.501Z,19.98
2023-04-17T11:49:51.996Z,17.95
2023-04-17T11:54:58.100Z,18.05
2023-04-17T11:59:59.655Z,16.48
2023-04-17T12:05:14.938Z,17.20
2023-04-17T12:10:16.437Z,17.95
2023-04-17T12:15:17.906Z,17.95
2023-04-17T12:20:19.397Z,18.95
2023-04-17T12:25:20.911Z,14.90
2023-04-17T12:30:23.295Z,17.88
2023-04-17T12:35:24.752Z,15.35
2023-04-17T12:40:26.338Z,17.63
2023-04-17T12:45:28.196Z,16.83
2023-04-17T12:50:29.642Z,18.85
2023-04-17T12:55:32.249Z,17.95
2023-04-17T13:00:34.339Z,16.85
2023-04-17T13:05:36.023Z,16.63
2023-04-17T13:10:37.579Z,13.77
2023-04-17T13:15:39.358Z,14.57
2023-04-17T13:20:40.832Z,13.43
2023-04-17T13:25:42.414Z,16.52
2023-04-17T13:30:43.916Z,13.60
2023-04-17T13:35:45.525Z,14.85
2023-04-17T13:40:46.946Z,16.55
2023-04-17T13:45:49.715Z,15.30
2023-04-17T13:50:51.325Z,13.43
2023-04-17T13:55:52.792Z,14.07
2023-04-17T14:00:54.243Z,12.77
2023-04-17T14:05:56.625Z,13.70
2023-04-17T14:10:58.149Z,12.25
2023-04-17T14:15:59.674Z,8.65
2023-04-17T14:21:01.429Z,10.43
2023-04-17T14:26:03.353Z,13.60
2023-04-17T14:31:05.425Z,9.15
2023-04-17T14:36:07.163Z,10.88
2023-04-17T14:41:09.256Z,13.45
2023-04-17T14:46:11.036Z,29.48
2023-04-17T14:51:14.329Z,13.65
2023-04-17T14:56:16.091Z,14.95
2023-04-17T15:01:17.653Z,14.55
2023-04-17T15:06:19.983Z,19.33
2023-04-17T15:11:21.404Z,13.02
2023-04-17T15:16:22.888Z,13.38
2023-04-17T15:21:24.331Z,17.52
2023-04-17T15:26:27.261Z,12.95
2023-04-17T15:31:28.695Z,16.20
2023-04-17T15:36:31.634Z,11.68
2023-04-17T15:41:33.054Z,11.27
2023-04-17T15:46:34.754Z,11.48
2023-04-17T15:51:36.389Z,18.05
2023-04-17T15:56:38.772Z,11.48
2023-04-17T16:01:40.369Z,12.00
2023-04-17T16:06:41.836Z,14.15
2023-04-17T16:11:43.653Z,12.40
2023-04-17T16:16:45.054Z,14.80
2023-04-17T16:21:46.469Z,14.38
2023-04-17T16:26:57.195Z,13.98
2023-04-17T16:31:58.767Z,13.27
2023-04-17T16:37:00.256Z,14.30
2023-04-17T16:42:01.834Z,14.13
2023-04-17T16:52:08.048Z,16.98
2023-04-17T16:57:09.463Z,18.02
2023-04-17T17:02:10.965Z,15.50
2023-04-17T17:07:12.435Z,14.00
2023-04-17T17:12:13.875Z,15.18
2023-04-17T17:17:15.627Z,16.88
2023-04-17T17:22:17.060Z,19.58
2023-04-17T17:27:18.519Z,16.08
2023-04-17T17:32:20.048Z,18.30
2023-04-17T17:37:21.735Z,20.65
2023-04-17T17:42:23.330Z,17.48
2023-04-17T17:47:27.379Z,13.43
2023-04-17T17:52:28.942Z,15.57
2023-04-17T17:57:38.726Z,16.85
2023-04-17T18:02:49.855Z,18.02
2023-04-17T18:07:51.548Z,17.30
2023-04-17T18:12:53.085Z,16.27
2023-04-17T18:17:55.564Z,18.90
2023-04-17T18:22:57.610Z,20.65
2023-04-17T18:27:59.084Z,18.88
2023-04-17T18:33:00.730Z,17.48
2023-04-17T18:38:02.370Z,18.52
2023-04-17T18:43:05.712Z,16.65
2023-04-17T18:48:07.473Z,19.02
2023-04-17T18:53:08.925Z,20.13
2023-04-17T18:58:10.408Z,19.27
2023-04-17T19:03:11.879Z,19.67
2023-04-17T19:08:14.924Z,18.67
2023-04-17T19:13:16.396Z,18.13
2023-04-17T19:18:17.874Z,20.73
2023-04-17T19:23:19.302Z,19.00
2023-04-17T19:28:21.381Z,19.25
2023-04-17T19:33:22.992Z,19.08
2023-04-17T19:38:25.977Z,21.27
2023-04-17T19:43:27.402Z,16.60
2023-04-17T19:48:28.818Z,21.40
2023-04-17T19:53:40.881Z,19.02
2023-04-17T19:58:42.648Z,21.50
2023-04-17T20:03:45.342Z,21.40
2023-04-17T20:08:47.150Z,20.35
2023-04-17T20:13:48.588Z,23.77
2023-04-17T20:18:51.821Z,20.50
2023-04-17T20:23:55.032Z,20.13
2023-04-17T20:28:56.494Z,21.92
2023-04-17T20:33:57.902Z,20.60
2023-04-17T20:38:59.363Z,18.70
2023-04-17T20:44:01.812Z,18.95
2023-04-17T20:49:03.380Z,17.85
2023-04-17T20:54:04.845Z,21.33
2023-04-17T20:59:06.324Z,19.52
2023-04-17T21:04:09.817Z,20.50
2023-04-17T21:09:14.165Z,21.02
2023-04-17T21:14:16.022Z,24.17
2023-04-17T21:19:17.468Z,21.33
2023-04-17T21:24:19.899Z,21.90
2023-04-17T21:29:21.328Z,23.15
2023-04-17T21:34:25.863Z,23.27
2023-04-17T21:39:27.403Z,23.63
2023-04-17T21:44:28.823Z,24.17
2023-04-17T21:49:30.232Z,28.02
2023-04-17T21:54:32.961Z,20.52
2023-04-17T21:59:35.049Z,21.38
2023-04-17T22:04:36.610Z,22.02
2023-04-17T22:09:38.151Z,21.42
2023-04-17T22:14:39.835Z,23.10
2023-04-17T22:19:41.879Z,22.00
2023-04-17T22:25:39.641Z,20.55
2023-04-17T22:31:37.694Z,19.67
2023-04-17T22:37:35.273Z,17.43
2023-04-17T22:43:33.205Z,21.25
2023-04-17T22:49:30.962Z,21.33
2023-04-17T22:55:28.786Z,20.77
2023-04-17T23:01:26.571Z,20.88
2023-04-17T23:07:24.361Z,21.90
2023-04-17T23:12:25.782Z,21.90
2023-04-17T23:17:27.289Z,22.08
2023-04-17T23:22:28.748Z,22.90
2023-04-17T23:27:31.547Z,25.15
2023-04-17T23:32:33.305Z,20.48
2023-04-17T23:37:34.751Z,22.02
2023-04-17T23:42:36.168Z,22.88
2023-04-17T23:47:37.724Z,23.13
2023-04-17T23:52:39.206Z,20.70
2023-04-17T23:57:40.658Z,23.45
